sensor_id;sensor_type;location;lat;lon;timestamp;P1;durP1;ratioP1;P2;durP2;ratioP2
78308;SDS011;67566;42.022;21.356;2023-06-19T00:01:59;9.40;;;7.95;;
78308;SDS011;67566;42.022;21.356;2023-06-19T00:04:25;9.32;;;7.65;;
78308;SDS011;67566;42.022;21.356;2023-06-19T00:06:51;11.93;;;8.73;;
78308;SDS011;67566;42.022;21.356;2023-06-19T00:09:18;9.32;;;8.40;;
78308;SDS011;67566;42.022;21.356;2023-06-19T00:11:43;10.50;;;8.48;;
78308;SDS011;67566;42.022;21.356;2023-06-19T00:14:09;9.00;;;8.10;;
78308;SDS011;67566;42.022;21.356;2023-06-19T00:16:34;9.73;;;8.50;;
78308;SDS011;67566;42.022;21.356;2023-06-19T00:19:00;9.13;;;8.00;;
78308;SDS011;67566;42.022;21.356;2023-06-19T00:21:28;11.27;;;8.05;;
78308;SDS011;67566;42.022;21.356;2023-06-19T00:23:53;9.63;;;7.88;;
78308;SDS011;67566;42.022;21.356;2023-06-19T00:26:19;9.90;;;8.10;;
78308;SDS011;67566;42.022;21.356;2023-06-19T00:28:48;11.30;;;8.50;;
78308;SDS011;67566;42.022;21.356;2023-06-19T00:31:13;10.20;;;9.20;;
78308;SDS011;67566;42.022;21.356;2023-06-19T00:33:40;11.32;;;9.18;;
78308;SDS011;67566;42.022;21.356;2023-06-19T00:36:12;11.73;;;8.85;;
78308;SDS011;67566;42.022;21.356;2023-06-19T00:38:40;9.93;;;8.60;;
78308;SDS011;67566;42.022;21.356;2023-06-19T00:41:07;8.95;;;8.05;;
78308;SDS011;67566;42.022;21.356;2023-06-19T00:43:33;10.85;;;9.38;;
78308;SDS011;67566;42.022;21.356;2023-06-19T00:45:59;13.07;;;8.95;;
78308;SDS011;67566;42.022;21.356;2023-06-19T00:48:25;12.35;;;8.40;;
78308;SDS011;67566;42.022;21.356;2023-06-19T00:50:52;9.35;;;8.32;;
78308;SDS011;67566;42.022;21.356;2023-06-19T00:53:19;10.63;;;9.52;;
78308;SDS011;67566;42.022;21.356;2023-06-19T00:55:45;10.98;;;8.88;;
78308;SDS011;67566;42.022;21.356;2023-06-19T00:58:12;11.38;;;8.90;;
78308;SDS011;67566;42.022;21.356;2023-06-19T01:00:38;11.48;;;9.40;;
78308;SDS011;67566;42.022;21.356;2023-06-19T01:03:04;10.57;;;9.13;;
78308;SDS011;67566;42.022;21.356;2023-06-19T01:05:30;12.35;;;9.10;;
78308;SDS011;67566;42.022;21.356;2023-06-19T01:10:49;10.70;;;9.60;;
78308;SDS011;67566;42.022;21.356;2023-06-19T01:13:23;11.35;;;10.25;;
78308;SDS011;67566;42.022;21.356;2023-06-19T01:15:56;11.23;;;8.52;;
78308;SDS011;67566;42.022;21.356;2023-06-19T01:18:23;11.40;;;8.75;;
78308;SDS011;67566;42.022;21.356;2023-06-19T01:20:50;11.77;;;10.23;;
78308;SDS011;67566;42.022;21.356;2023-06-19T01:23:15;12.00;;;9.05;;
78308;SDS011;67566;42.022;21.356;2023-06-19T01:25:41;10.02;;;8.80;;
78308;SDS011;67566;42.022;21.356;2023-06-19T01:28:07;12.13;;;8.63;;
78308;SDS011;67566;42.022;21.356;2023-06-19T01:30:36;9.68;;;8.65;;
78308;SDS011;67566;42.022;21.356;2023-06-19T01:33:11;11.77;;;9.65;;
78308;SDS011;67566;42.022;21.356;2023-06-19T01:35:42;12.15;;;8.90;;
78308;SDS011;67566;42.022;21.356;2023-06-19T01:38:08;13.68;;;9.13;;
78308;SDS011;67566;42.022;21.356;2023-06-19T01:40:36;11.60;;;9.20;;
78308;SDS011;67566;42.022;21.356;2023-06-19T01:43:02;10.57;;;8.90;;
78308;SDS011;67566;42.022;21.356;2023-06-19T01:45:30;10.65;;;8.88;;
78308;SDS011;67566;42.022;21.356;2023-06-19T01:47:56;18.52;;;9.05;;
78308;SDS011;67566;42.022;21.356;2023-06-19T01:50:22;11.93;;;8.88;;
78308;SDS011;67566;42.022;21.356;2023-06-19T01:52:49;15.00;;;10.05;;
78308;SDS011;67566;42.022;21.356;2023-06-19T01:55:15;12.15;;;8.82;;
78308;SDS011;67566;42.022;21.356;2023-06-19T01:57:41;10.18;;;8.85;;
78308;SDS011;67566;42.022;21.356;2023-06-19T02:00:07;10.55;;;9.02;;
78308;SDS011;67566;42.022;21.356;2023-06-19T02:02:33;11.68;;;8.90;;
78308;SDS011;67566;42.022;21.356;2023-06-19T02:04:59;10.98;;;9.10;;
78308;SDS011;67566;42.022;21.356;2023-06-19T02:07:24;12.55;;;10.27;;
78308;SDS011;67566;42.022;21.356;2023-06-19T02:09:50;11.98;;;9.43;;
78308;SDS011;67566;42.022;21.356;2023-06-19T02:12:16;13.60;;;9.82;;
78308;SDS011;67566;42.022;21.356;2023-06-19T02:14:41;11.95;;;9.70;;
78308;SDS011;67566;42.022;21.356;2023-06-19T02:17:06;10.77;;;9.48;;
78308;SDS011;67566;42.022;21.356;2023-06-19T02:19:32;12.50;;;8.27;;
78308;SDS011;67566;42.022;21.356;2023-06-19T02:21:57;9.93;;;8.93;;
78308;SDS011;67566;42.022;21.356;2023-06-19T02:24:23;10.35;;;9.18;;
78308;SDS011;67566;42.022;21.356;2023-06-19T02:26:48;10.95;;;8.55;;
78308;SDS011;67566;42.022;21.356;2023-06-19T02:29:14;9.65;;;8.65;;
78308;SDS011;67566;42.022;21.356;2023-06-19T02:31:40;11.32;;;9.23;;
78308;SDS011;67566;42.022;21.356;2023-06-19T02:34:07;14.88;;;9.77;;
78308;SDS011;67566;42.022;21.356;2023-06-19T02:36:34;10.95;;;9.07;;
78308;SDS011;67566;42.022;21.356;2023-06-19T02:39:00;11.43;;;9.80;;
78308;SDS011;67566;42.022;21.356;2023-06-19T02:41:26;9.82;;;8.82;;
78308;SDS011;67566;42.022;21.356;2023-06-19T02:43:51;10.32;;;8.80;;
78308;SDS011;67566;42.022;21.356;2023-06-19T02:46:17;12.93;;;9.32;;
78308;SDS011;67566;42.022;21.356;2023-06-19T02:48:42;10.40;;;9.30;;
78308;SDS011;67566;42.022;21.356;2023-06-19T02:51:10;12.07;;;9.63;;
78308;SDS011;67566;42.022;21.356;2023-06-19T02:53:36;12.50;;;9.52;;
78308;SDS011;67566;42.022;21.356;2023-06-19T02:56:01;10.07;;;9.02;;
78308;SDS011;67566;42.022;21.356;2023-06-19T02:58:27;11.13;;;10.02;;
78308;SDS011;67566;42.022;21.356;2023-06-19T03:00:53;10.70;;;8.98;;
78308;SDS011;67566;42.022;21.356;2023-06-19T03:03:18;10.43;;;9.07;;
78308;SDS011;67566;42.022;21.356;2023-06-19T03:05:44;12.07;;;10.25;;
78308;SDS011;67566;42.022;21.356;2023-06-19T03:08:09;11.02;;;9.13;;
78308;SDS011;67566;42.022;21.356;2023-06-19T03:10:35;11.45;;;9.55;;
78308;SDS011;67566;42.022;21.356;2023-06-19T03:13:01;13.32;;;9.60;;
78308;SDS011;67566;42.022;21.356;2023-06-19T03:15:26;10.75;;;9.63;;
78308;SDS011;67566;42.022;21.356;2023-06-19T03:17:55;11.18;;;9.48;;
78308;SDS011;67566;42.022;21.356;2023-06-19T03:20:20;11.18;;;9.23;;
78308;SDS011;67566;42.022;21.356;2023-06-19T03:22:46;11.85;;;9.98;;
78308;SDS011;67566;42.022;21.356;2023-06-19T03:25:11;12.90;;;9.68;;
78308;SDS011;67566;42.022;21.356;2023-06-19T03:27:37;11.88;;;9.68;;
78308;SDS011;67566;42.022;21.356;2023-06-19T03:30:03;10.57;;;8.57;;
78308;SDS011;67566;42.022;21.356;2023-06-19T03:32:33;11.27;;;10.07;;
78308;SDS011;67566;42.022;21.356;2023-06-19T03:34:59;10.57;;;8.82;;
78308;SDS011;67566;42.022;21.356;2023-06-19T03:37:25;11.27;;;8.82;;
78308;SDS011;67566;42.022;21.356;2023-06-19T03:39:50;12.63;;;8.95;;
78308;SDS011;67566;42.022;21.356;2023-06-19T03:42:16;13.18;;;9.80;;
78308;SDS011;67566;42.022;21.356;2023-06-19T03:44:41;12.13;;;9.10;;
78308;SDS011;67566;42.022;21.356;2023-06-19T03:47:07;12.18;;;9.65;;
78308;SDS011;67566;42.022;21.356;2023-06-19T03:49:33;13.77;;;9.95;;
78308;SDS011;67566;42.022;21.356;2023-06-19T03:51:58;11.38;;;9.40;;
78308;SDS011;67566;42.022;21.356;2023-06-19T03:54:24;10.50;;;9.25;;
78308;SDS011;67566;42.022;21.356;2023-06-19T03:56:51;12.30;;;10.00;;
78308;SDS011;67566;42.022;21.356;2023-06-19T03:59:17;11.05;;;9.80;;
78308;SDS011;67566;42.022;21.356;2023-06-19T04:01:42;12.82;;;9.98;;
78308;SDS011;67566;42.022;21.356;2023-06-19T04:04:08;13.35;;;9.45;;
78308;SDS011;67566;42.022;21.356;2023-06-19T04:06:33;12.10;;;9.07;;
78308;SDS011;67566;42.022;21.356;2023-06-19T04:08:59;10.98;;;9.57;;
78308;SDS011;67566;42.022;21.356;2023-06-19T04:11:24;12.02;;;8.38;;
78308;SDS011;67566;42.022;21.356;2023-06-19T04:13:50;11.30;;;8.93;;
78308;SDS011;67566;42.022;21.356;2023-06-19T04:16:15;11.45;;;9.02;;
78308;SDS011;67566;42.022;21.356;2023-06-19T04:18:41;12.23;;;9.23;;
78308;SDS011;67566;42.022;21.356;2023-06-19T04:21:06;13.57;;;10.02;;
78308;SDS011;67566;42.022;21.356;2023-06-19T04:23:32;11.93;;;9.55;;
78308;SDS011;67566;42.022;21.356;2023-06-19T04:25:58;10.25;;;9.15;;
78308;SDS011;67566;42.022;21.356;2023-06-19T04:28:23;10.20;;;9.07;;
78308;SDS011;67566;42.022;21.356;2023-06-19T04:30:49;10.85;;;9.13;;
78308;SDS011;67566;42.022;21.356;2023-06-19T04:33:14;13.80;;;9.52;;
78308;SDS011;67566;42.022;21.356;2023-06-19T04:35:41;11.18;;;9.32;;
78308;SDS011;67566;42.022;21.356;2023-06-19T04:38:06;11.60;;;9.50;;
78308;SDS011;67566;42.022;21.356;2023-06-19T04:40:32;11.18;;;9.52;;
78308;SDS011;67566;42.022;21.356;2023-06-19T04:42:59;10.55;;;9.45;;
78308;SDS011;67566;42.022;21.356;2023-06-19T04:45:25;11.80;;;9.93;;
78308;SDS011;67566;42.022;21.356;2023-06-19T04:47:51;10.05;;;8.70;;
78308;SDS011;67566;42.022;21.356;2023-06-19T04:50:16;9.95;;;8.80;;
78308;SDS011;67566;42.022;21.356;2023-06-19T04:52:42;9.32;;;7.93;;
78308;SDS011;67566;42.022;21.356;2023-06-19T04:55:07;10.48;;;8.98;;
78308;SDS011;67566;42.022;21.356;2023-06-19T04:57:38;10.00;;;9.00;;
78308;SDS011;67566;42.022;21.356;2023-06-19T05:00:04;10.15;;;8.68;;
78308;SDS011;67566;42.022;21.356;2023-06-19T05:02:32;9.05;;;8.05;;
78308;SDS011;67566;42.022;21.356;2023-06-19T05:05:00;11.68;;;8.82;;
78308;SDS011;67566;42.022;21.356;2023-06-19T05:07:30;10.77;;;8.88;;
78308;SDS011;67566;42.022;21.356;2023-06-19T05:09:56;12.27;;;8.30;;
78308;SDS011;67566;42.022;21.356;2023-06-19T05:12:22;9.25;;;7.38;;
78308;SDS011;67566;42.022;21.356;2023-06-19T05:14:47;9.43;;;8.13;;
78308;SDS011;67566;42.022;21.356;2023-06-19T05:17:13;10.38;;;7.90;;
78308;SDS011;67566;42.022;21.356;2023-06-19T05:19:39;11.13;;;7.82;;
78308;SDS011;67566;42.022;21.356;2023-06-19T05:22:04;11.93;;;8.13;;
78308;SDS011;67566;42.022;21.356;2023-06-19T05:24:31;8.43;;;7.53;;
78308;SDS011;67566;42.022;21.356;2023-06-19T05:26:57;9.57;;;6.88;;
78308;SDS011;67566;42.022;21.356;2023-06-19T05:29:22;9.98;;;7.90;;
78308;SDS011;67566;42.022;21.356;2023-06-19T05:31:48;8.93;;;6.57;;
78308;SDS011;67566;42.022;21.356;2023-06-19T05:34:13;10.02;;;6.72;;
78308;SDS011;67566;42.022;21.356;2023-06-19T05:36:39;8.32;;;6.72;;
78308;SDS011;67566;42.022;21.356;2023-06-19T05:39:04;10.50;;;7.25;;
78308;SDS011;67566;42.022;21.356;2023-06-19T05:41:29;8.80;;;7.20;;
78308;SDS011;67566;42.022;21.356;2023-06-19T05:43:56;9.52;;;7.53;;
78308;SDS011;67566;42.022;21.356;2023-06-19T05:46:21;11.65;;;6.47;;
78308;SDS011;67566;42.022;21.356;2023-06-19T05:48:47;8.15;;;6.30;;
78308;SDS011;67566;42.022;21.356;2023-06-19T05:51:13;6.78;;;6.03;;
78308;SDS011;67566;42.022;21.356;2023-06-19T05:53:39;8.35;;;6.72;;
78308;SDS011;67566;42.022;21.356;2023-06-19T05:56:05;8.23;;;6.55;;
78308;SDS011;67566;42.022;21.356;2023-06-19T05:58:32;9.70;;;6.57;;
78308;SDS011;67566;42.022;21.356;2023-06-19T06:00:57;12.93;;;6.78;;
78308;SDS011;67566;42.022;21.356;2023-06-19T06:03:26;9.13;;;6.50;;
78308;SDS011;67566;42.022;21.356;2023-06-19T06:05:52;7.75;;;6.32;;
78308;SDS011;67566;42.022;21.356;2023-06-19T06:08:18;8.80;;;5.53;;
78308;SDS011;67566;42.022;21.356;2023-06-19T06:10:44;7.88;;;5.88;;
78308;SDS011;67566;42.022;21.356;2023-06-19T06:13:09;8.00;;;5.93;;
78308;SDS011;67566;42.022;21.356;2023-06-19T06:15:35;9.35;;;6.53;;
78308;SDS011;67566;42.022;21.356;2023-06-19T06:18:00;7.85;;;6.05;;
78308;SDS011;67566;42.022;21.356;2023-06-19T06:20:28;7.68;;;6.05;;
78308;SDS011;67566;42.022;21.356;2023-06-19T06:22:54;9.07;;;5.93;;
78308;SDS011;67566;42.022;21.356;2023-06-19T06:25:19;7.25;;;6.32;;
78308;SDS011;67566;42.022;21.356;2023-06-19T06:27:45;7.35;;;5.95;;
78308;SDS011;67566;42.022;21.356;2023-06-19T06:30:11;10.10;;;5.97;;
78308;SDS011;67566;42.022;21.356;2023-06-19T06:32:37;7.60;;;5.95;;
78308;SDS011;67566;42.022;21.356;2023-06-19T06:35:03;10.90;;;6.57;;
78308;SDS011;67566;42.022;21.356;2023-06-19T06:37:29;7.45;;;6.07;;
78308;SDS011;67566;42.022;21.356;2023-06-19T06:39:54;6.82;;;5.40;;
78308;SDS011;67566;42.022;21.356;2023-06-19T06:42:20;6.68;;;5.40;;
78308;SDS011;67566;42.022;21.356;2023-06-19T06:44:45;8.90;;;6.35;;
78308;SDS011;67566;42.022;21.356;2023-06-19T06:47:11;7.88;;;5.45;;
78308;SDS011;67566;42.022;21.356;2023-06-19T06:49:36;7.05;;;5.65;;
78308;SDS011;67566;42.022;21.356;2023-06-19T06:52:03;6.22;;;5.63;;
78308;SDS011;67566;42.022;21.356;2023-06-19T06:54:29;6.15;;;5.43;;
78308;SDS011;67566;42.022;21.356;2023-06-19T06:56:54;6.50;;;5.43;;
78308;SDS011;67566;42.022;21.356;2023-06-19T06:59:23;8.07;;;5.63;;
78308;SDS011;67566;42.022;21.356;2023-06-19T07:01:52;10.85;;;5.95;;
78308;SDS011;67566;42.022;21.356;2023-06-19T07:04:18;6.63;;;5.43;;
78308;SDS011;67566;42.022;21.356;2023-06-19T07:06:43;7.53;;;6.70;;
78308;SDS011;67566;42.022;21.356;2023-06-19T07:09:09;6.88;;;6.18;;
78308;SDS011;67566;42.022;21.356;2023-06-19T07:11:35;10.95;;;5.70;;
78308;SDS011;67566;42.022;21.356;2023-06-19T07:14:01;6.95;;;5.80;;
78308;SDS011;67566;42.022;21.356;2023-06-19T07:16:27;8.05;;;5.55;;
78308;SDS011;67566;42.022;21.356;2023-06-19T07:18:52;6.95;;;5.38;;
78308;SDS011;67566;42.022;21.356;2023-06-19T07:21:17;8.40;;;5.85;;
78308;SDS011;67566;42.022;21.356;2023-06-19T07:23:43;8.35;;;5.18;;
78308;SDS011;67566;42.022;21.356;2023-06-19T07:26:10;6.03;;;5.43;;
78308;SDS011;67566;42.022;21.356;2023-06-19T07:28:36;6.32;;;5.22;;
78308;SDS011;67566;42.022;21.356;2023-06-19T07:31:02;6.53;;;5.82;;
78308;SDS011;67566;42.022;21.356;2023-06-19T07:33:28;5.38;;;4.80;;
78308;SDS011;67566;42.022;21.356;2023-06-19T07:35:57;7.22;;;5.50;;
78308;SDS011;67566;42.022;21.356;2023-06-19T07:38:22;6.57;;;5.45;;
78308;SDS011;67566;42.022;21.356;2023-06-19T07:40:48;6.43;;;4.95;;
78308;SDS011;67566;42.022;21.356;2023-06-19T07:43:16;5.95;;;4.93;;
78308;SDS011;67566;42.022;21.356;2023-06-19T07:45:42;6.28;;;4.95;;
78308;SDS011;67566;42.022;21.356;2023-06-19T07:48:08;5.88;;;4.80;;
78308;SDS011;67566;42.022;21.356;2023-06-19T07:50:33;8.13;;;5.28;;
78308;SDS011;67566;42.022;21.356;2023-06-19T07:52:59;7.05;;;4.90;;
78308;SDS011;67566;42.022;21.356;2023-06-19T07:55:24;5.78;;;5.15;;
78308;SDS011;67566;42.022;21.356;2023-06-19T07:57:50;6.35;;;4.60;;
78308;SDS011;67566;42.022;21.356;2023-06-19T08:00:17;6.78;;;5.10;;
78308;SDS011;67566;42.022;21.356;2023-06-19T08:02:43;6.82;;;4.82;;
78308;SDS011;67566;42.022;21.356;2023-06-19T08:05:08;5.32;;;4.65;;
78308;SDS011;67566;42.022;21.356;2023-06-19T08:07:35;6.40;;;5.15;;
78308;SDS011;67566;42.022;21.356;2023-06-19T08:10:01;6.78;;;4.65;;
78308;SDS011;67566;42.022;21.356;2023-06-19T08:12:28;5.88;;;5.18;;
78308;SDS011;67566;42.022;21.356;2023-06-19T08:14:54;6.72;;;4.70;;
78308;SDS011;67566;42.022;21.356;2023-06-19T08:17:19;5.40;;;3.92;;
78308;SDS011;67566;42.022;21.356;2023-06-19T08:19:45;6.45;;;4.50;;
78308;SDS011;67566;42.022;21.356;2023-06-19T08:22:10;6.30;;;4.53;;
78308;SDS011;67566;42.022;21.356;2023-06-19T08:24:36;6.40;;;4.68;;
78308;SDS011;67566;42.022;21.356;2023-06-19T08:27:04;6.50;;;4.57;;
78308;SDS011;67566;42.022;21.356;2023-06-19T08:29:29;5.45;;;4.80;;
78308;SDS011;67566;42.022;21.356;2023-06-19T08:31:55;6.57;;;4.65;;
78308;SDS011;67566;42.022;21.356;2023-06-19T08:34:20;5.35;;;4.50;;
78308;SDS011;67566;42.022;21.356;2023-06-19T08:36:46;6.07;;;4.47;;
78308;SDS011;67566;42.022;21.356;2023-06-19T08:39:11;7.07;;;4.53;;
78308;SDS011;67566;42.022;21.356;2023-06-19T08:41:37;7.88;;;5.28;;
78308;SDS011;67566;42.022;21.356;2023-06-19T08:44:04;6.72;;;4.95;;
78308;SDS011;67566;42.022;21.356;2023-06-19T08:46:30;6.75;;;4.82;;
78308;SDS011;67566;42.022;21.356;2023-06-19T08:48:56;7.88;;;4.55;;
78308;SDS011;67566;42.022;21.356;2023-06-19T08:51:22;6.95;;;4.82;;
78308;SDS011;67566;42.022;21.356;2023-06-19T08:53:48;10.05;;;4.45;;
78308;SDS011;67566;42.022;21.356;2023-06-19T08:56:18;6.25;;;4.28;;
78308;SDS011;67566;42.022;21.356;2023-06-19T08:58:44;5.90;;;4.72;;
78308;SDS011;67566;42.022;21.356;2023-06-19T09:01:18;7.18;;;4.93;;
78308;SDS011;67566;42.022;21.356;2023-06-19T09:03:45;6.70;;;4.97;;
78308;SDS011;67566;42.022;21.356;2023-06-19T09:06:14;5.93;;;4.72;;
78308;SDS011;67566;42.022;21.356;2023-06-19T09:08:41;5.78;;;5.18;;
78308;SDS011;67566;42.022;21.356;2023-06-19T09:11:07;7.35;;;4.78;;
78308;SDS011;67566;42.022;21.356;2023-06-19T09:13:32;7.78;;;4.43;;
78308;SDS011;67566;42.022;21.356;2023-06-19T09:16:04;7.90;;;4.88;;
78308;SDS011;67566;42.022;21.356;2023-06-19T09:18:32;9.43;;;5.03;;
78308;SDS011;67566;42.022;21.356;2023-06-19T09:21:20;7.22;;;4.75;;
78308;SDS011;67566;42.022;21.356;2023-06-19T09:23:50;6.43;;;4.97;;
78308;SDS011;67566;42.022;21.356;2023-06-19T09:26:18;5.40;;;4.30;;
78308;SDS011;67566;42.022;21.356;2023-06-19T09:28:45;7.63;;;4.47;;
78308;SDS011;67566;42.022;21.356;2023-06-19T09:31:11;7.13;;;4.88;;
78308;SDS011;67566;42.022;21.356;2023-06-19T09:33:38;8.70;;;4.72;;
78308;SDS011;67566;42.022;21.356;2023-06-19T09:36:05;7.07;;;5.05;;
78308;SDS011;67566;42.022;21.356;2023-06-19T09:38:32;6.57;;;4.55;;
78308;SDS011;67566;42.022;21.356;2023-06-19T09:41:02;5.35;;;4.18;;
78308;SDS011;67566;42.022;21.356;2023-06-19T09:43:39;6.38;;;4.47;;
78308;SDS011;67566;42.022;21.356;2023-06-19T09:46:08;7.13;;;4.68;;
78308;SDS011;67566;42.022;21.356;2023-06-19T09:48:35;5.15;;;4.13;;
78308;SDS011;67566;42.022;21.356;2023-06-19T09:51:19;5.85;;;4.50;;
78308;SDS011;67566;42.022;21.356;2023-06-19T09:53:55;6.30;;;4.38;;
78308;SDS011;67566;42.022;21.356;2023-06-19T09:56:23;8.10;;;5.03;;
78308;SDS011;67566;42.022;21.356;2023-06-19T10:01:17;5.95;;;4.90;;
78308;SDS011;67566;42.022;21.356;2023-06-19T10:03:44;7.95;;;4.82;;
78308;SDS011;67566;42.022;21.356;2023-06-19T10:06:13;6.93;;;4.40;;
78308;SDS011;67566;42.022;21.356;2023-06-19T10:08:45;7.70;;;5.18;;
78308;SDS011;67566;42.022;21.356;2023-06-19T10:11:11;8.65;;;4.70;;
78308;SDS011;67566;42.022;21.356;2023-06-19T10:13:40;6.25;;;5.18;;
78308;SDS011;67566;42.022;21.356;2023-06-19T10:16:06;6.20;;;4.38;;
78308;SDS011;67566;42.022;21.356;2023-06-19T10:18:43;5.38;;;3.97;;
78308;SDS011;67566;42.022;21.356;2023-06-19T10:21:20;5.88;;;4.35;;
78308;SDS011;67566;42.022;21.356;2023-06-19T10:23:56;6.78;;;4.85;;
78308;SDS011;67566;42.022;21.356;2023-06-19T10:26:35;7.22;;;4.63;;
78308;SDS011;67566;42.022;21.356;2023-06-19T10:29:01;5.35;;;4.40;;
78308;SDS011;67566;42.022;21.356;2023-06-19T10:31:27;11.07;;;4.28;;
78308;SDS011;67566;42.022;21.356;2023-06-19T10:33:55;7.63;;;5.10;;
78308;SDS011;67566;42.022;21.356;2023-06-19T10:36:22;8.07;;;5.13;;
78308;SDS011;67566;42.022;21.356;2023-06-19T10:38:50;5.97;;;4.47;;
78308;SDS011;67566;42.022;21.356;2023-06-19T10:41:16;8.40;;;5.38;;
78308;SDS011;67566;42.022;21.356;2023-06-19T10:43:51;10.18;;;4.93;;
78308;SDS011;67566;42.022;21.356;2023-06-19T10:46:38;8.27;;;5.38;;
78308;SDS011;67566;42.022;21.356;2023-06-19T10:49:05;6.30;;;4.78;;
78308;SDS011;67566;42.022;21.356;2023-06-19T10:51:39;5.57;;;4.53;;
78308;SDS011;67566;42.022;21.356;2023-06-19T10:54:08;9.77;;;4.93;;
78308;SDS011;67566;42.022;21.356;2023-06-19T10:56:35;7.47;;;5.20;;
78308;SDS011;67566;42.022;21.356;2023-06-19T10:59:01;6.70;;;4.47;;
78308;SDS011;67566;42.022;21.356;2023-06-19T11:01:34;8.57;;;4.88;;
78308;SDS011;67566;42.022;21.356;2023-06-19T11:04:02;7.28;;;4.75;;
78308;SDS011;67566;42.022;21.356;2023-06-19T11:06:30;8.07;;;4.80;;
78308;SDS011;67566;42.022;21.356;2023-06-19T11:08:56;5.90;;;4.70;;
78308;SDS011;67566;42.022;21.356;2023-06-19T11:11:21;8.32;;;4.93;;
78308;SDS011;67566;42.022;21.356;2023-06-19T11:13:47;6.05;;;4.50;;
78308;SDS011;67566;42.022;21.356;2023-06-19T11:16:14;8.48;;;5.10;;
78308;SDS011;67566;42.022;21.356;2023-06-19T11:18:39;9.85;;;5.57;;
78308;SDS011;67566;42.022;21.356;2023-06-19T11:21:05;8.52;;;5.43;;
78308;SDS011;67566;42.022;21.356;2023-06-19T11:23:30;9.48;;;5.30;;
78308;SDS011;67566;42.022;21.356;2023-06-19T11:26:03;7.43;;;4.90;;
78308;SDS011;67566;42.022;21.356;2023-06-19T11:28:29;6.22;;;4.80;;
78308;SDS011;67566;42.022;21.356;2023-06-19T11:30:58;8.88;;;6.05;;
78308;SDS011;67566;42.022;21.356;2023-06-19T11:33:26;7.97;;;5.00;;
78308;SDS011;67566;42.022;21.356;2023-06-19T11:35:53;6.38;;;5.20;;
78308;SDS011;67566;42.022;21.356;2023-06-19T11:38:20;4.95;;;4.22;;
78308;SDS011;67566;42.022;21.356;2023-06-19T11:40:47;16.00;;;4.57;;
78308;SDS011;67566;42.022;21.356;2023-06-19T11:43:23;6.72;;;4.80;;
78308;SDS011;67566;42.022;21.356;2023-06-19T11:45:51;5.65;;;4.40;;
78308;SDS011;67566;42.022;21.356;2023-06-19T11:48:24;6.63;;;4.28;;
78308;SDS011;67566;42.022;21.356;2023-06-19T11:50:50;6.57;;;4.57;;
78308;SDS011;67566;42.022;21.356;2023-06-19T11:53:17;5.93;;;4.95;;
78308;SDS011;67566;42.022;21.356;2023-06-19T11:55:43;8.23;;;5.13;;
78308;SDS011;67566;42.022;21.356;2023-06-19T11:58:09;7.60;;;5.22;;
78308;SDS011;67566;42.022;21.356;2023-06-19T12:00:37;7.55;;;4.97;;
78308;SDS011;67566;42.022;21.356;2023-06-19T12:03:04;8.60;;;4.82;;
78308;SDS011;67566;42.022;21.356;2023-06-19T12:05:29;6.95;;;5.05;;
78308;SDS011;67566;42.022;21.356;2023-06-19T12:07:55;6.47;;;4.78;;
78308;SDS011;67566;42.022;21.356;2023-06-19T12:10:21;7.85;;;5.22;;
78308;SDS011;67566;42.022;21.356;2023-06-19T12:12:47;7.70;;;4.80;;
78308;SDS011;67566;42.022;21.356;2023-06-19T12:15:12;8.18;;;4.93;;
78308;SDS011;67566;42.022;21.356;2023-06-19T12:17:37;7.03;;;5.30;;
78308;SDS011;67566;42.022;21.356;2023-06-19T12:20:03;9.35;;;5.20;;
78308;SDS011;67566;42.022;21.356;2023-06-19T12:24:59;6.88;;;4.80;;
78308;SDS011;67566;42.022;21.356;2023-06-19T12:27:24;8.35;;;5.65;;
78308;SDS011;67566;42.022;21.356;2023-06-19T12:29:50;8.25;;;5.28;;
78308;SDS011;67566;42.022;21.356;2023-06-19T12:32:15;8.45;;;5.07;;
78308;SDS011;67566;42.022;21.356;2023-06-19T12:34:41;7.03;;;5.43;;
78308;SDS011;67566;42.022;21.356;2023-06-19T12:37:11;7.95;;;5.22;;
78308;SDS011;67566;42.022;21.356;2023-06-19T12:39:40;9.88;;;5.65;;
78308;SDS011;67566;42.022;21.356;2023-06-19T12:42:07;8.85;;;5.85;;
78308;SDS011;67566;42.022;21.356;2023-06-19T12:44:32;10.63;;;5.65;;
78308;SDS011;67566;42.022;21.356;2023-06-19T12:46:58;7.20;;;5.45;;
78308;SDS011;67566;42.022;21.356;2023-06-19T12:49:25;9.52;;;4.95;;
78308;SDS011;67566;42.022;21.356;2023-06-19T12:51:51;9.65;;;5.30;;
78308;SDS011;67566;42.022;21.356;2023-06-19T12:54:17;8.27;;;5.43;;
78308;SDS011;67566;42.022;21.356;2023-06-19T12:56:43;8.32;;;5.38;;
78308;SDS011;67566;42.022;21.356;2023-06-19T12:59:09;7.28;;;5.88;;
78308;SDS011;67566;42.022;21.356;2023-06-19T13:01:35;7.57;;;6.03;;
78308;SDS011;67566;42.022;21.356;2023-06-19T13:04:00;6.93;;;5.28;;
78308;SDS011;67566;42.022;21.356;2023-06-19T13:06:26;7.40;;;5.20;;
78308;SDS011;67566;42.022;21.356;2023-06-19T13:08:51;8.98;;;5.68;;
78308;SDS011;67566;42.022;21.356;2023-06-19T13:11:17;7.88;;;5.47;;
78308;SDS011;67566;42.022;21.356;2023-06-19T13:13:45;9.27;;;5.68;;
78308;SDS011;67566;42.022;21.356;2023-06-19T13:16:10;13.27;;;5.72;;
78308;SDS011;67566;42.022;21.356;2023-06-19T13:18:36;9.65;;;5.93;;
78308;SDS011;67566;42.022;21.356;2023-06-19T13:21:01;8.45;;;5.57;;
78308;SDS011;67566;42.022;21.356;2023-06-19T13:23:27;7.18;;;5.35;;
78308;SDS011;67566;42.022;21.356;2023-06-19T13:25:52;7.05;;;5.93;;
78308;SDS011;67566;42.022;21.356;2023-06-19T13:28:18;6.53;;;5.03;;
78308;SDS011;67566;42.022;21.356;2023-06-19T13:30:43;9.15;;;5.63;;
78308;SDS011;67566;42.022;21.356;2023-06-19T13:33:09;7.97;;;5.10;;
78308;SDS011;67566;42.022;21.356;2023-06-19T13:35:35;7.72;;;5.30;;
78308;SDS011;67566;42.022;21.356;2023-06-19T13:38:01;11.90;;;5.50;;
78308;SDS011;67566;42.022;21.356;2023-06-19T13:40:27;6.03;;;5.35;;
78308;SDS011;67566;42.022;21.356;2023-06-19T13:42:52;7.97;;;5.28;;
78308;SDS011;67566;42.022;21.356;2023-06-19T13:45:18;7.45;;;5.18;;
78308;SDS011;67566;42.022;21.356;2023-06-19T13:47:43;7.40;;;5.38;;
78308;SDS011;67566;42.022;21.356;2023-06-19T13:50:09;7.13;;;5.13;;
78308;SDS011;67566;42.022;21.356;2023-06-19T13:52:34;8.63;;;5.10;;
78308;SDS011;67566;42.022;21.356;2023-06-19T13:55:01;6.70;;;5.18;;
78308;SDS011;67566;42.022;21.356;2023-06-19T13:57:27;6.45;;;4.97;;
78308;SDS011;67566;42.022;21.356;2023-06-19T13:59:53;6.55;;;4.45;;
78308;SDS011;67566;42.022;21.356;2023-06-19T14:02:18;7.18;;;5.03;;
78308;SDS011;67566;42.022;21.356;2023-06-19T14:04:44;6.78;;;5.18;;
78308;SDS011;67566;42.022;21.356;2023-06-19T14:07:09;5.68;;;5.03;;
78308;SDS011;67566;42.022;21.356;2023-06-19T14:09:35;6.00;;;4.60;;
78308;SDS011;67566;42.022;21.356;2023-06-19T14:12:00;7.10;;;5.15;;
78308;SDS011;67566;42.022;21.356;2023-06-19T14:14:26;7.97;;;6.07;;
78308;SDS011;67566;42.022;21.356;2023-06-19T14:16:51;6.35;;;4.78;;
78308;SDS011;67566;42.022;21.356;2023-06-19T14:19:17;7.90;;;5.43;;
78308;SDS011;67566;42.022;21.356;2023-06-19T14:21:42;7.15;;;5.32;;
78308;SDS011;67566;42.022;21.356;2023-06-19T14:24:08;6.97;;;5.43;;
78308;SDS011;67566;42.022;21.356;2023-06-19T14:26:33;12.85;;;5.30;;
78308;SDS011;67566;42.022;21.356;2023-06-19T14:28:59;9.68;;;5.82;;
78308;SDS011;67566;42.022;21.356;2023-06-19T14:31:24;6.93;;;5.18;;
78308;SDS011;67566;42.022;21.356;2023-06-19T14:33:50;7.20;;;5.20;;